Time;durP1;ratioP1;P1;durP2;ratioP2;P2;SDS_P1;SDS_P2;PMS_P1;PMS_P2;Temp;Humidity;BMP_temperature;BMP_pressure;BME280_temperature;BME280_humidity;BME280_pressure;Samples;Min_cycle;Max_cycle;Signal;HPM_P1;HPM_P2
2020/12/02 00:02:23;;;;;;;87.40;17.33;;;2.40;64.70;;;;;;5070947;28;20299;-76
2020/12/02 00:04:52;;;;;;;84.50;16.88;;;2.40;65.00;;;;;;5093505;22;20262;-69
2020/12/02 00:07:19;;;;;;;92.57;18.80;;;2.40;64.60;;;;;;5071186;28;20216;-68
2020/12/02 00:09:46;;;;;;;86.70;17.15;;;2.40;64.70;;;;;;5070976;28;20688;-69
2020/12/02 00:12:13;;;;;;;90.55;19.20;;;2.40;65.10;;;;;;5071060;28;20297;-68
2020/12/02 00:25:19;;;;;;;89.50;18.58;;;2.40;64.70;;;;;;5071198;28;20674;-69
2020/12/02 00:27:47;;;;;;;85.38;17.33;;;2.40;64.70;;;;;;5068740;28;20312;-68
2020/12/02 00:30:16;;;;;;;89.07;19.95;;;2.40;65.00;;;;;;5071036;28;20209;-68
2020/12/02 00:32:45;;;;;;;92.97;17.75;;;2.40;65.00;;;;;;5070648;28;20546;-69
2020/12/02 00:35:14;;;;;;;89.13;19.45;;;2.40;65.60;;;;;;5071136;28;20225;-69
2020/12/02 00:37:41;;;;;;;90.28;17.75;;;2.40;65.20;;;;;;5074075;28;20229;-69
2020/12/02 00:40:09;;;;;;;84.18;19.10;;;2.30;64.90;;;;;;5074295;28;20672;-68
2020/12/02 00:42:35;;;;;;;88.20;18.42;;;2.30;64.60;;;;;;5074625;28;20639;-68
2020/12/02 00:48:26;;;;;;;92.50;17.40;;;2.30;64.40;;;;;;5072387;28;20230;-69
2020/12/02 00:50:54;;;;;;;84.82;17.38;;;2.30;64.10;;;;;;5073297;28;20265;-68
2020/12/02 00:53:23;;;;;;;93.35;17.95;;;2.30;64.00;;;;;;5074641;28;20209;-69
2020/12/02 00:55:51;;;;;;;79.55;15.88;;;2.30;63.90;;;;;;5074439;28;20237;-68
2020/12/02 00:58:28;;;;;;;86.40;18.02;;;2.30;64.20;;;;;;5074567;28;20366;-69
2020/12/02 01:00:56;;;;;;;96.70;18.05;;;2.30;64.20;;;;;;5074003;28;20742;-69
2020/12/02 01:03:26;;;;;;;82.15;18.27;;;2.30;63.90;;;;;;5074551;28;20212;-69
2020/12/02 01:05:54;;;;;;;83.68;16.05;;;2.30;63.60;;;;;;5074095;28;20243;-69
2020/12/02 01:08:25;;;;;;;89.10;18.63;;;2.30;63.70;;;;;;5074436;28;20197;-68
2020/12/02 01:10:57;;;;;;;92.53;16.92;;;2.30;64.20;;;;;;5073981;28;20204;-68
2020/12/02 01:13:23;;;;;;;81.90;16.88;;;2.30;63.70;;;;;;5074050;28;20245;-68
2020/12/02 01:15:49;;;;;;;93.85;17.20;;;2.30;63.60;;;;;;5074370;28;20257;-69
2020/12/02 01:18:21;;;;;;;80.95;15.95;;;2.30;63.80;;;;;;5073882;28;20224;-69
2020/12/02 01:21:00;;;;;;;84.10;17.10;;;2.30;63.70;;;;;;5074300;28;20577;-68
2020/12/02 01:23:27;;;;;;;80.45;15.00;;;2.30;63.60;;;;;;5073984;28;20680;-68
2020/12/02 01:25:54;;;;;;;87.70;16.77;;;2.30;63.60;;;;;;5073847;28;20221;-68
2020/12/02 01:28:27;;;;;;;82.63;16.60;;;2.30;63.70;;;;;;5074235;28;20203;-69
2020/12/02 01:30:56;;;;;;;92.22;19.30;;;2.30;63.60;;;;;;5073746;28;20228;-68
2020/12/02 01:33:23;;;;;;;82.60;15.55;;;2.30;63.70;;;;;;5073495;28;20294;-68
2020/12/02 01:35:52;;;;;;;84.10;16.40;;;2.30;63.60;;;;;;5073324;28;20239;-69
2020/12/02 01:38:24;;;;;;;88.25;17.33;;;2.20;63.90;;;;;;5073566;28;20235;-69
2020/12/02 01:40:52;;;;;;;83.60;15.73;;;2.30;63.80;;;;;;5074027;28;20209;-69
2020/12/02 01:43:19;;;;;;;85.18;16.77;;;2.30;64.40;;;;;;5072626;28;20209;-68
2020/12/02 01:45:48;;;;;;;82.80;16.20;;;2.30;64.00;;;;;;5072553;28;20232;-68
2020/12/02 01:48:36;;;;;;;82.82;17.27;;;2.30;63.70;;;;;;5072405;28;20204;-68
2020/12/02 01:51:09;;;;;;;88.32;16.95;;;2.30;63.60;;;;;;5073504;28;20185;-68
2020/12/02 01:53:45;;;;;;;87.78;17.50;;;2.30;63.60;;;;;;5073624;28;20208;-69
2020/12/02 01:56:19;;;;;;;86.75;16.17;;;2.30;64.00;;;;;;5073416;28;20312;-68
2020/12/02 01:58:55;;;;;;;90.28;18.55;;;2.30;63.70;;;;;;5073156;28;20217;-68
2020/12/02 02:01:33;;;;;;;75.47;14.95;;;2.30;63.70;;;;;;5072668;28;20204;-68
2020/12/02 02:04:02;;;;;;;83.80;16.17;;;2.30;63.70;;;;;;5073478;28;20610;-69
2020/12/02 02:06:48;;;;;;;77.07;14.85;;;2.30;63.70;;;;;;5072790;28;20237;-68
2020/12/02 02:09:15;;;;;;;85.10;17.40;;;2.30;63.60;;;;;;5073157;28;20671;-68
2020/12/02 02:11:49;;;;;;;81.32;15.50;;;2.30;64.00;;;;;;5072815;28;20213;-68
2020/12/02 02:14:29;;;;;;;83.40;15.45;;;2.30;63.90;;;;;;5073080;28;20571;-69
2020/12/02 02:16:55;;;;;;;80.70;16.45;;;2.30;64.20;;;;;;5072996;28;20218;-68
2020/12/02 02:19:24;;;;;;;86.35;15.40;;;2.30;64.20;;;;;;5072791;28;20730;-68
2020/12/02 02:21:54;;;;;;;79.10;15.70;;;2.30;64.20;;;;;;5072391;28;20208;-69
2020/12/02 02:24:20;;;;;;;74.07;15.52;;;2.30;64.30;;;;;;5072365;28;20205;-68
2020/12/02 02:26:50;;;;;;;78.45;15.05;;;2.30;64.10;;;;;;5072665;28;20201;-69
2020/12/02 02:29:21;;;;;;;82.25;16.13;;;2.30;64.20;;;;;;5072938;28;20278;-68
2020/12/02 02:31:52;;;;;;;81.57;15.68;;;2.30;64.40;;;;;;5072476;28;20587;-69
2020/12/02 02:34:19;;;;;;;80.25;15.80;;;2.40;64.50;;;;;;5070025;28;20212;-68
2020/12/02 02:36:46;;;;;;;89.07;17.17;;;2.40;64.50;;;;;;5072601;28;20201;-69
2020/12/02 02:39:16;;;;;;;84.88;16.15;;;2.40;65.20;;;;;;5072444;28;20791;-69
2020/12/02 02:41:43;;;;;;;86.75;19.67;;;2.40;64.90;;;;;;5072271;28;20209;-68
2020/12/02 02:44:12;;;;;;;92.43;20.20;;;2.40;65.20;;;;;;5072523;28;20205;-69
2020/12/02 02:46:38;;;;;;;85.22;17.25;;;2.40;65.30;;;;;;5072491;28;20229;-68
2020/12/02 02:49:06;;;;;;;80.47;16.50;;;2.40;64.70;;;;;;5072473;28;20731;-68
2020/12/02 02:51:32;;;;;;;82.45;17.50;;;2.30;64.80;;;;;;5072220;28;20204;-68
2020/12/02 02:53:59;;;;;;;86.18;17.00;;;2.30;64.70;;;;;;5072234;28;20297;-68
2020/12/02 02:56:25;;;;;;;92.35;16.92;;;2.30;64.80;;;;;;5071845;28;20251;-68
2020/12/02 02:58:51;;;;;;;81.70;15.65;;;2.30;65.40;;;;;;5072027;28;20221;-68
2020/12/02 03:01:19;;;;;;;84.53;15.13;;;2.30;64.70;;;;;;5072154;28;20623;-68
2020/12/02 03:03:45;;;;;;;88.68;18.35;;;2.40;65.00;;;;;;5072460;28;20239;-69
2020/12/02 03:06:12;;;;;;;90.15;18.33;;;2.40;65.80;;;;;;5071817;28;20233;-68
2020/12/02 03:08:38;;;;;;;88.00;17.92;;;2.40;65.10;;;;;;5072044;28;20751;-68
2020/12/02 03:11:08;;;;;;;87.72;18.13;;;2.30;65.40;;;;;;5071575;28;20583;-69
2020/12/02 03:13:39;;;;;;;84.88;19.65;;;2.30;66.20;;;;;;5071926;28;20212;-69
2020/12/02 03:16:12;;;;;;;83.22;19.70;;;2.30;65.90;;;;;;5071853;28;20302;-68
2020/12/02 03:18:41;;;;;;;87.20;20.95;;;2.30;66.30;;;;;;5071856;28;20232;-69
2020/12/02 03:21:13;;;;;;;99.07;21.73;;;2.30;66.40;;;;;;5071651;28;20209;-68
2020/12/02 03:23:39;;;;;;;95.32;23.15;;;2.30;66.30;;;;;;5071858;28;20205;-69
2020/12/02 03:26:06;;;;;;;90.53;21.98;;;2.30;66.90;;;;;;5071583;28;20225;-68
2020/12/02 03:28:32;;;;;;;92.30;19.48;;;2.30;66.80;;;;;;5071597;28;20217;-68
2020/12/02 03:31:01;;;;;;;92.00;21.33;;;2.30;66.70;;;;;;5071700;28;20211;-69
2020/12/02 03:33:28;;;;;;;88.22;20.02;;;2.30;67.70;;;;;;5071220;28;20201;-69
2020/12/02 03:35:56;;;;;;;85.28;20.48;;;2.30;67.00;;;;;;5071514;28;20225;-68
2020/12/02 03:38:23;;;;;;;98.10;20.80;;;2.30;67.40;;;;;;5071810;28;20224;-69
2020/12/02 03:40:50;;;;;;;79.47;18.00;;;2.30;67.70;;;;;;5071752;28;20215;-69
2020/12/02 03:43:16;;;;;;;91.38;21.85;;;2.20;67.50;;;;;;5071200;28;20207;-68
2020/12/02 03:45:44;;;;;;;89.13;18.92;;;2.20;67.80;;;;;;5071426;28;20592;-69
2020/12/02 03:48:12;;;;;;;84.95;17.30;;;2.20;68.30;;;;;;5071433;28;20694;-69
2020/12/02 03:50:40;;;;;;;96.30;20.70;;;2.20;68.10;;;;;;5071251;28;20217;-69
2020/12/02 03:53:09;;;;;;;78.68;18.73;;;2.20;68.20;;;;;;5071431;28;20211;-69
2020/12/02 03:55:35;;;;;;;80.95;19.17;;;2.20;68.40;;;;;;5071336;28;20738;-68
2020/12/02 03:58:03;;;;;;;82.22;18.90;;;2.20;68.90;;;;;;5071379;28;20256;-69
2020/12/02 04:00:29;;;;;;;86.85;19.30;;;2.20;68.90;;;;;;5071459;28;20211;-68
2020/12/02 04:02:56;;;;;;;86.53;18.65;;;2.20;69.20;;;;;;5071035;28;20205;-68
2020/12/02 04:05:22;;;;;;;88.10;18.73;;;2.30;69.30;;;;;;5071334;28;20236;-68
2020/12/02 04:07:48;;;;;;;95.60;20.88;;;2.30;69.50;;;;;;5071529;28;20219;-69
2020/12/02 04:10:16;;;;;;;89.35;18.88;;;2.30;69.80;;;;;;5071401;28;20530;-69
2020/12/02 04:12:44;;;;;;;88.88;19.02;;;2.30;70.10;;;;;;5074596;28;20215;-69
2020/12/02 04:15:11;;;;;;;84.57;19.38;;;2.30;69.80;;;;;;5075370;28;20307;-68
2020/12/02 04:17:38;;;;;;;86.38;19.17;;;2.30;70.70;;;;;;5074983;28;20204;-68
2020/12/02 04:20:04;;;;;;;92.22;20.02;;;2.30;70.10;;;;;;5075264;28;20233;-69
2020/12/02 04:22:31;;;;;;;94.70;20.35;;;2.30;70.50;;;;;;5075083;28;20216;-69
2020/12/02 04:24:57;;;;;;;83.93;19.45;;;2.40;71.10;;;;;;5075201;28;20667;-69
2020/12/02 04:27:24;;;;;;;84.57;19.20;;;2.40;71.10;;;;;;5075011;28;20578;-68
2020/12/02 04:29:50;;;;;;;90.90;20.17;;;2.40;70.80;;;;;;5075096;28;20733;-69
2020/12/02 04:32:17;;;;;;;86.53;18.15;;;2.40;70.80;;;;;;5074690;28;20200;-68
2020/12/02 04:34:43;;;;;;;95.15;20.02;;;2.40;71.00;;;;;;5074691;28;20231;-69
2020/12/02 04:37:09;;;;;;;95.72;20.20;;;2.40;71.50;;;;;;5075066;28;20205;-69
2020/12/02 04:39:36;;;;;;;89.63;18.75;;;2.40;71.10;;;;;;5074840;28;20220;-68
2020/12/02 04:42:03;;;;;;;80.32;18.17;;;2.40;70.90;;;;;;5074590;28;20209;-68
2020/12/02 04:44:31;;;;;;;86.80;18.40;;;2.40;71.50;;;;;;5074513;28;20283;-69
2020/12/02 04:46:57;;;;;;;85.45;18.80;;;2.40;71.10;;;;;;5074568;28;20205;-68
2020/12/02 04:49:28;;;;;;;90.47;18.10;;;2.40;71.20;;;;;;5074784;28;20197;-69
2020/12/02 04:51:58;;;;;;;92.15;18.65;;;2.40;70.80;;;;;;5074714;28;20291;-68
2020/12/02 04:54:25;;;;;;;88.10;17.77;;;2.40;70.90;;;;;;5074643;28;20293;-68
2020/12/02 04:56:51;;;;;;;88.28;18.15;;;2.40;71.20;;;;;;5074439;28;20241;-68
2020/12/02 04:59:18;;;;;;;84.88;16.63;;;2.40;70.80;;;;;;5074234;28;20228;-68
2020/12/02 05:01:51;;;;;;;85.00;18.15;;;2.40;70.70;;;;;;5074493;28;20209;-69
2020/12/02 05:04:20;;;;;;;91.60;20.33;;;2.40;71.00;;;;;;5074460;28;20205;-68
2020/12/02 05:06:48;;;;;;;84.15;19.10;;;2.40;71.10;;;;;;5074333;28;20204;-68
2020/12/02 05:09:20;;;;;;;87.95;18.00;;;2.40;71.50;;;;;;5074394;28;20567;-68
2020/12/02 05:11:56;;;;;;;86.68;18.30;;;2.40;71.20;;;;;;5073868;28;20252;-68
2020/12/02 05:14:23;;;;;;;89.30;19.00;;;2.40;71.50;;;;;;5074503;28;20229;-68
2020/12/02 05:17:12;;;;;;;90.03;18.20;;;2.40;71.30;;;;;;5074108;28;20683;-69
2020/12/02 05:19:38;;;;;;;87.22;17.60;;;2.40;70.90;;;;;;5074100;28;20232;-69
2020/12/02 05:22:10;;;;;;;87.03;18.02;;;2.40;71.00;;;;;;5073485;28;20356;-69
2020/12/02 05:24:46;;;;;;;95.07;18.17;;;2.40;71.40;;;;;;5073301;28;20228;-68
2020/12/02 05:27:17;;;;;;;83.18;18.25;;;2.40;71.50;;;;;;5074057;28;20296;-68
2020/12/02 05:29:56;;;;;;;87.78;19.42;;;2.40;71.40;;;;;;5074132;28;20197;-69
2020/12/02 05:32:24;;;;;;;89.40;19.58;;;2.40;71.40;;;;;;5073720;28;20205;-69
2020/12/02 05:34:51;;;;;;;81.22;18.23;;;2.40;71.00;;;;;;5074221;28;20236;-69
2020/12/02 05:37:27;;;;;;;93.85;18.85;;;2.40;71.20;;;;;;5073873;28;20251;-67
2020/12/02 05:39:56;;;;;;;93.57;19.00;;;2.40;71.40;;;;;;5074198;28;20267;-68
2020/12/02 05:42:32;;;;;;;101.28;25.83;;;2.40;71.40;;;;;;5073626;28;20211;-69
2020/12/02 05:45:11;;;;;;;91.88;21.27;;;2.40;72.00;;;;;;5073571;28;20286;-68
2020/12/02 05:47:38;;;;;;;89.78;18.75;;;2.40;72.00;;;;;;5073940;28;20275;-69
2020/12/02 05:50:10;;;;;;;86.90;19.85;;;2.40;71.10;;;;;;5073388;28;20609;-69
2020/12/02 05:52:39;;;;;;;83.63;17.25;;;2.40;70.80;;;;;;5073390;28;20671;-68
2020/12/02 05:55:15;;;;;;;90.47;16.83;;;2.40;71.10;;;;;;5073597;28;20712;-68
2020/12/02 05:57:53;;;;;;;82.68;17.02;;;2.40;71.00;;;;;;5073247;28;20209;-69
2020/12/02 06:00:19;;;;;;;88.72;17.50;;;2.40;71.30;;;;;;5073386;28;20232;-69
2020/12/02 06:02:47;;;;;;;83.63;16.50;;;2.50;70.60;;;;;;5073262;28;20205;-69
2020/12/02 06:05:14;;;;;;;83.07;16.30;;;2.50;71.20;;;;;;5073198;28;20237;-68
2020/12/02 06:07:50;;;;;;;84.22;17.55;;;2.50;70.70;;;;;;5097790;22;20248;-76
2020/12/02 06:10:18;;;;;;;84.03;15.38;;;2.50;70.80;;;;;;5075046;28;20565;-76
2020/12/02 06:12:44;;;;;;;81.05;16.73;;;2.40;70.20;;;;;;5075163;28;20735;-76
2020/12/02 06:15:19;;;;;;;84.57;16.55;;;2.50;70.50;;;;;;5075178;28;20211;-76
2020/12/02 06:17:46;;;;;;;76.28;15.20;;;2.50;70.50;;;;;;5075013;28;20315;-76
2020/12/02 06:20:12;;;;;;;92.43;16.20;;;2.50;70.90;;;;;;5074787;28;20693;-76
2020/12/02 06:22:53;;;;;;;78.10;14.20;;;2.50;70.70;;;;;;5074410;28;20287;-76
2020/12/02 06:25:45;;;;;;;92.38;17.05;;;2.50;70.80;;;;;;5074790;28;20201;-76
2020/12/02 06:28:12;;;;;;;86.65;17.75;;;2.50;70.90;;;;;;5074655;28;20225;-76
2020/12/02 06:30:38;;;;;;;80.68;16.42;;;2.50;70.50;;;;;;5075099;28;20288;-76
2020/12/02 06:33:20;;;;;;;86.30;16.75;;;2.50;70.30;;;;;;5074096;28;20205;-76
2020/12/02 06:35:51;;;;;;;83.53;16.48;;;2.40;70.20;;;;;;5074024;28;20227;-76
2020/12/02 06:38:35;;;;;;;82.00;16.63;;;2.40;70.10;;;;;;5074148;28;20298;-76
2020/12/02 06:41:29;;;;;;;82.65;15.95;;;2.40;70.50;;;;;;5074882;28;20264;-76
2020/12/02 06:44:09;;;;;;;84.38;18.05;;;2.40;70.30;;;;;;5075021;28;20236;-76
2020/12/02 06:46:54;;;;;;;80.88;16.15;;;2.40;70.30;;;;;;5074561;28;20228;-76
2020/12/02 06:49:22;;;;;;;83.43;16.23;;;2.40;70.60;;;;;;5074350;28;20280;-76
2020/12/02 06:51:55;;;;;;;83.78;16.55;;;2.40;70.60;;;;;;5074394;28;20201;-76
2020/12/02 06:54:22;;;;;;;94.85;15.90;;;2.40;70.40;;;;;;5074573;28;20270;-76
2020/12/02 06:56:56;;;;;;;84.93;14.27;;;2.40;70.60;;;;;;5074554;28;20281;-76
2020/12/02 06:59:22;;;;;;;89.00;16.90;;;2.40;69.70;;;;;;5074342;28;20221;-76
2020/12/02 07:01:50;;;;;;;81.07;15.30;;;2.40;70.20;;;;;;5073703;28;20215;-76
2020/12/02 07:04:23;;;;;;;87.97;16.48;;;2.40;69.80;;;;;;5074548;28;20296;-76
2020/12/02 07:06:58;;;;;;;84.70;17.48;;;2.40;70.00;;;;;;5074794;28;20240;-75
2020/12/02 07:09:24;;;;;;;88.35;15.40;;;2.40;70.00;;;;;;5074497;28;20201;-76
2020/12/02 07:11:55;;;;;;;82.22;15.95;;;2.40;69.90;;;;;;5072409;28;20205;-76
2020/12/02 07:14:24;;;;;;;91.32;16.15;;;2.40;70.20;;;;;;5073116;28;20295;-76
2020/12/02 07:16:57;;;;;;;86.88;16.02;;;2.40;70.00;;;;;;5072603;28;20235;-76
2020/12/02 07:19:28;;;;;;;90.75;17.92;;;2.40;70.20;;;;;;5073008;28;20278;-75
2020/12/02 07:21:58;;;;;;;94.68;18.77;;;2.50;70.30;;;;;;5072996;28;20355;-75
2020/12/02 07:24:28;;;;;;;93.03;19.13;;;2.50;70.10;;;;;;5072979;28;20220;-75
2020/12/02 07:26:55;;;;;;;87.30;16.88;;;2.50;69.60;;;;;;5073131;28;20225;-76
2020/12/02 07:29:24;;;;;;;94.30;18.90;;;2.50;69.60;;;;;;5073079;28;20201;-75
2020/12/02 07:31:58;;;;;;;88.65;16.85;;;2.40;69.40;;;;;;5073508;28;20296;-76
2020/12/02 07:34:25;;;;;;;96.20;19.10;;;2.40;69.10;;;;;;5074051;28;20240;-75
2020/12/02 07:36:57;;;;;;;97.20;20.83;;;2.40;69.20;;;;;;5073584;28;20229;-75
2020/12/02 07:39:25;;;;;;;94.47;19.50;;;2.40;69.20;;;;;;5074085;28;20256;-76
2020/12/02 07:42:00;;;;;;;93.10;18.75;;;2.40;69.10;;;;;;5073252;28;20205;-75
2020/12/02 07:44:29;;;;;;;97.07;16.90;;;2.40;69.00;;;;;;5077792;28;20212;-75
2020/12/02 07:46:59;;;;;;;93.07;17.88;;;2.50;68.90;;;;;;5075205;28;20229;-75
2020/12/02 07:49:27;;;;;;;96.72;17.30;;;2.50;69.00;;;;;;5073617;28;20205;-75
2020/12/02 07:52:05;;;;;;;96.45;18.58;;;2.50;68.90;;;;;;5073728;28;20754;-76
2020/12/02 07:54:31;;;;;;;90.70;16.70;;;2.50;69.10;;;;;;5073019;28;20299;-76
2020/12/02 07:57:00;;;;;;;90.60;17.95;;;2.50;68.70;;;;;;5073059;28;20730;-75
2020/12/02 07:59:29;;;;;;;89.65;18.23;;;2.60;68.70;;;;;;5073584;28;20259;-75
2020/12/02 08:02:07;;;;;;;85.28;15.82;;;2.60;67.90;;;;;;5073042;28;20300;-76
2020/12/02 08:04:50;;;;;;;90.65;16.92;;;2.60;68.10;;;;;;5071401;28;20205;-76
2020/12/02 08:07:16;;;;;;;89.53;19.25;;;2.70;68.00;;;;;;5072775;28;20229;-76
2020/12/02 08:09:46;;;;;;;89.70;19.63;;;2.70;66.60;;;;;;5073344;28;20307;-76
2020/12/02 08:12:16;;;;;;;87.63;18.15;;;2.70;66.00;;;;;;5072758;28;20244;-76
2020/12/02 08:14:45;;;;;;;103.97;21.17;;;2.80;66.10;;;;;;5073307;28;20292;-76
2020/12/02 08:17:17;;;;;;;89.32;18.70;;;2.80;65.10;;;;;;5072625;28;20224;-76
2020/12/02 08:19:45;;;;;;;96.38;20.90;;;2.80;63.20;;;;;;5072614;28;20319;-76
2020/12/02 08:22:21;;;;;;;83.75;17.80;;;2.80;61.20;;;;;;5071552;28;20409;-75
2020/12/02 08:25:01;;;;;;;89.60;19.08;;;2.80;59.80;;;;;;5073057;28;20292;-75
2020/12/02 08:27:29;;;;;;;98.57;20.77;;;2.90;59.40;;;;;;5072840;28;20608;-75
2020/12/02 08:29:56;;;;;;;102.57;19.90;;;2.90;57.60;;;;;;5072899;28;20314;-76
2020/12/02 08:32:27;;;;;;;104.55;19.90;;;2.90;58.30;;;;;;5072782;28;20247;-75
2020/12/02 08:34:54;;;;;;;97.22;20.08;;;2.90;57.80;;;;;;5072805;28;20295;-76
2020/12/02 08:37:34;;;;;;;113.68;23.13;;;2.90;56.70;;;;;;5072717;28;20229;-75
2020/12/02 08:40:27;;;;;;;98.35;22.50;;;2.80;53.60;;;;;;5080919;28;20233;-75
2020/12/02 08:42:54;;;;;;;95.75;20.85;;;2.80;47.00;;;;;;5080639;28;20220;-75
2020/12/02 08:45:22;;;;;;;109.68;23.08;;;2.80;42.50;;;;;;5084140;28;20234;-74
2020/12/02 08:47:53;;;;;;;99.90;19.55;;;2.80;35.80;;;;;;5082714;28;20290;-75
2020/12/02 08:50:24;;;;;;;91.22;17.80;;;2.80;37.20;;;;;;5081518;28;20222;-75
2020/12/02 08:52:51;;;;;;;94.00;19.98;;;2.80;35.20;;;;;;5081089;28;20224;-75
2020/12/02 08:55:19;;;;;;;84.88;16.45;;;2.80;35.70;;;;;;5081228;28;20234;-74
2020/12/02 08:57:46;;;;;;;100.10;20.35;;;2.90;36.20;;;;;;5075289;28;20225;-75
2020/12/02 09:00:15;;;;;;;95.18;18.40;;;2.90;36.80;;;;;;5075735;28;20311;-75
2020/12/02 09:02:41;;;;;;;98.80;21.73;;;2.90;37.60;;;;;;5074976;28;20208;-75
2020/12/02 09:05:07;;;;;;;93.28;19.88;;;2.90;39.90;;;;;;5075123;28;20213;-75
2020/12/02 09:07:34;;;;;;;98.75;22.13;;;2.90;38.40;;;;;;5075084;28;20244;-75
2020/12/02 09:10:00;;;;;;;93.35;19.30;;;2.90;37.90;;;;;;5075319;28;20299;-75
2020/12/02 09:12:27;;;;;;;110.20;24.15;;;2.90;38.20;;;;;;5074704;28;20209;-75
2020/12/02 09:14:54;;;;;;;102.97;22.42;;;2.90;33.10;;;;;;5075137;28;20231;-75
2020/12/02 09:17:20;;;;;;;107.20;22.02;;;2.90;27.30;;;;;;5075145;28;20225;-75
2020/12/02 09:19:46;;;;;;;100.53;19.70;;;2.90;23.90;;;;;;5074421;28;20300;-75
2020/12/02 09:22:13;;;;;;;89.50;19.38;;;2.90;22.30;;;;;;5074775;28;20288;-76
2020/12/02 09:24:40;;;;;;;94.85;20.85;;;2.90;21.60;;;;;;5074853;28;20292;-76
2020/12/02 09:27:07;;;;;;;101.38;22.45;;;2.90;19.20;;;;;;5074623;28;20319;-76
2020/12/02 09:29:34;;;;;;;93.05;21.88;;;2.90;14.00;;;;;;5074811;28;20308;-75
2020/12/02 09:32:00;;;;;;;96.60;19.77;;;3.00;12.30;;;;;;5074135;28;20627;-76
2020/12/02 09:34:27;;;;;;;97.13;20.33;;;3.00;9.20;;;;;;5074378;28;20296;-76
2020/12/02 09:36:53;;;;;;;96.38;20.30;;;3.00;10.10;;;;;;5074160;28;20229;-76
2020/12/02 09:39:21;;;;;;;89.80;17.98;;;3.00;4.50;;;;;;5074327;28;20378;-76
2020/12/02 09:42:05;;;;;;;97.00;19.80;;;3.00;4.10;;;;;;5074171;28;20674;-75
2020/12/02 09:44:35;;;;;;;86.88;19.05;;;3.00;1.60;;;;;;5076058;28;20292;-75
2020/12/02 09:47:05;;;;;;;88.72;18.40;;;3.10;1.00;;;;;;5076232;28;20316;-75
2020/12/02 09:49:33;;;;;;;87.78;18.40;;;3.10;1.40;;;;;;5074093;28;20562;-75
2020/12/02 09:52:19;;;;;;;87.68;16.98;;;3.10;1.00;;;;;;5073732;28;20208;-75
2020/12/02 09:54:47;;;;;;;84.07;15.52;;;3.20;1.70;;;;;;5073779;28;20204;-75
2020/12/02 09:57:16;;;;;;;89.43;19.55;;;3.20;4.50;;;;;;5073478;28;20221;-75
2020/12/02 09:59:43;;;;;;;91.15;17.95;;;3.30;3.70;;;;;;5073494;28;20225;-75
2020/12/02 10:02:29;;;;;;;98.80;18.90;;;3.40;4.00;;;;;;5073498;28;20296;-75
2020/12/02 10:05:09;;;;;;;99.22;19.52;;;3.40;4.20;;;;;;5074086;28;20254;-75
2020/12/02 10:07:51;;;;;;;93.03;20.67;;;3.40;1.00;;;;;;5073099;28;20237;-75
2020/12/02 10:10:34;;;;;;;93.35;17.50;;;3.40;1.00;;;;;;5072780;28;20201;-75
2020/12/02 10:13:26;;;;;;;93.53;18.10;;;3.40;1.00;;;;;;5073174;28;20287;-75
2020/12/02 10:16:00;;;;;;;91.65;17.90;;;3.50;1.00;;;;;;5073127;28;20279;-75
2020/12/02 10:18:53;;;;;;;91.28;17.92;;;3.50;1.00;;;;;;5073421;28;20640;-76
2020/12/02 10:21:39;;;;;;;93.28;20.70;;;3.40;1.00;;;;;;5073020;28;20698;-75
2020/12/02 10:24:19;;;;;;;90.40;18.98;;;3.50;1.00;;;;;;5072669;28;20738;-76
2020/12/02 10:27:15;;;;;;;83.65;17.00;;;3.50;1.00;;;;;;5073028;28;20227;-76
2020/12/02 10:30:00;;;;;;;95.95;18.40;;;3.60;1.00;;;;;;5073010;28;20664;-75
2020/12/02 10:32:59;;;;;;;90.60;19.13;;;3.70;1.00;;;;;;5072539;28;20277;-75
2020/12/02 10:35:28;;;;;;;97.95;19.88;;;3.80;1.00;;;;;;5073227;28;20208;-75
2020/12/02 10:38:00;;;;;;;98.18;20.88;;;3.80;1.00;;;;;;5072999;28;20315;-75
2020/12/02 10:40:34;;;;;;;114.20;32.00;;;3.90;1.00;;;;;;5072773;28;20231;-76
2020/12/02 10:43:05;;;;;;;97.75;26.73;;;3.90;1.00;;;;;;5072237;28;20212;-76
2020/12/02 10:45:32;;;;;;;96.18;21.80;;;3.90;1.00;;;;;;5072927;28;20205;-76
2020/12/02 10:48:22;;;;;;;103.28;23.10;;;3.90;1.00;;;;;;5072443;28;20225;-75
2020/12/02 10:50:51;;;;;;;91.00;20.05;;;3.90;1.00;;;;;;5072378;28;20219;-75
2020/12/02 10:53:24;;;;;;;106.00;21.95;;;3.90;1.00;;;;;;5071672;28;20209;-75
2020/12/02 10:55:51;;;;;;;87.30;19.00;;;3.90;1.00;;;;;;5072460;28;20205;-75
2020/12/02 10:58:20;;;;;;;89.13;18.05;;;3.80;1.00;;;;;;5072260;28;20225;-75
2020/12/02 11:00:51;;;;;;;93.88;21.17;;;3.80;1.00;;;;;;5072015;28;20228;-75
2020/12/02 11:03:22;;;;;;;84.10;16.25;;;3.80;1.00;;;;;;5072285;28;20573;-76
2020/12/02 11:06:00;;;;;;;84.50;20.00;;;3.70;1.00;;;;;;5072368;28;20209;-76
2020/12/02 11:08:36;;;;;;;89.00;20.10;;;3.70;1.00;;;;;;5071977;28;20243;-75
2020/12/02 11:11:14;;;;;;;93.03;18.63;;;3.70;1.00;;;;;;5072381;28;20258;-76
2020/12/02 11:13:51;;;;;;;90.57;19.98;;;3.70;1.00;;;;;;5071782;28;20219;-75
2020/12/02 11:16:25;;;;;;;90.63;20.02;;;3.70;1.00;;;;;;5071587;28;20239;-75
2020/12/02 11:19:14;;;;;;;90.78;20.05;;;3.60;1.00;;;;;;5071884;28;20205;-76
2020/12/02 11:21:55;;;;;;;86.32;18.95;;;3.60;1.00;;;;;;5071190;28;20667;-75
2020/12/02 11:24:41;;;;;;;91.72;19.05;;;3.60;1.00;;;;;;5072002;28;20207;-75
2020/12/02 11:27:09;;;;;;;83.63;18.48;;;3.60;1.00;;;;;;5071939;28;20312;-75
2020/12/02 11:29:37;;;;;;;89.00;17.73;;;3.50;1.00;;;;;;5071957;28;20197;-76
2020/12/02 11:32:43;;;;;;;91.82;19.15;;;3.50;1.00;;;;;;5071391;28;20212;-75
2020/12/02 11:35:23;;;;;;;81.15;15.60;;;3.50;1.00;;;;;;5071670;28;20208;-76
2020/12/02 11:38:01;;;;;;;88.82;17.75;;;3.40;1.00;;;;;;5071766;28;20363;-76
2020/12/02 11:40:34;;;;;;;83.22;15.73;;;3.40;1.00;;;;;;5071696;28;20228;-77
2020/12/02 11:43:09;;;;;;;91.93;17.65;;;3.40;1.00;;;;;;5071555;28;20300;-76
2020/12/02 11:45:38;;;;;;;100.00;18.70;;;3.30;1.00;;;;;;5074013;28;20204;-77
2020/12/02 11:48:24;;;;;;;85.18;17.63;;;3.30;1.00;;;;;;5078821;28;20260;-76
2020/12/02 11:51:01;;;;;;;92.32;19.40;;;3.20;1.00;;;;;;5071851;28;20208;-76
2020/12/02 11:53:47;;;;;;;89.75;19.05;;;3.20;1.00;;;;;;5071330;28;20736;-77
2020/12/02 11:56:17;;;;;;;84.80;16.63;;;3.10;1.00;;;;;;5071633;28;20672;-76
2020/12/02 11:58:48;;;;;;;92.35;19.90;;;3.10;1.00;;;;;;5071761;28;20587;-76
2020/12/02 12:01:24;;;;;;;97.57;20.48;;;3.10;1.00;;;;;;5071778;28;20296;-74
2020/12/02 12:03:57;;;;;;;98.07;20.13;;;3.00;1.00;;;;;;5071287;28;20211;-74
2020/12/02 12:06:26;;;;;;;90.00;18.50;;;3.00;1.00;;;;;;5070985;28;20229;-73
2020/12/02 12:09:09;;;;;;;101.05;21.05;;;2.90;1.00;;;;;;5096059;22;20315;-71
2020/12/02 12:11:38;;;;;;;96.30;20.65;;;2.90;1.00;;;;;;5071090;28;20211;-72
2020/12/02 12:14:11;;;;;;;97.90;21.55;;;2.90;1.00;;;;;;5071075;28;20215;-70
2020/12/02 12:16:46;;;;;;;97.85;21.83;;;2.90;1.00;;;;;;5070988;28;20211;-72
2020/12/02 12:19:21;;;;;;;106.00;24.90;;;2.90;1.00;;;;;;5071637;28;20224;-71
2020/12/02 12:22:04;;;;;;;109.88;24.92;;;2.80;1.00;;;;;;5071512;28;20237;-71
2020/12/02 12:24:31;;;;;;;100.30;24.48;;;2.80;1.00;;;;;;5071835;28;20205;-72
2020/12/02 12:26:57;;;;;;;100.97;24.98;;;2.80;1.00;;;;;;5071572;28;20262;-72
2020/12/02 12:29:24;;;;;;;94.88;20.85;;;2.70;1.00;;;;;;5071204;28;20283;-72
2020/12/02 12:31:56;;;;;;;95.32;22.00;;;2.70;1.00;;;;;;5071581;28;20232;-72
2020/12/02 12:34:32;;;;;;;95.35;20.23;;;2.70;1.00;;;;;;5075221;28;20209;-73
2020/12/02 12:37:03;;;;;;;91.72;18.80;;;2.60;1.00;;;;;;5074969;28;20299;-71
2020/12/02 12:39:39;;;;;;;89.30;18.60;;;2.60;1.00;;;;;;5074750;28;20235;-71
2020/12/02 12:42:05;;;;;;;91.55;19.77;;;2.60;1.00;;;;;;5074758;28;20518;-72
2020/12/02 12:44:34;;;;;;;86.22;18.23;;;2.60;1.00;;;;;;5076338;28;20211;-72
2020/12/02 12:47:11;;;;;;;88.90;20.35;;;2.50;1.00;;;;;;5076663;28;20216;-70
2020/12/02 12:49:37;;;;;;;90.07;19.13;;;2.50;1.00;;;;;;5076246;28;20640;-71
2020/12/02 12:52:05;;;;;;;91.60;20.00;;;2.50;1.00;;;;;;5076082;28;20769;-72
2020/12/02 12:54:34;;;;;;;84.78;17.65;;;2.50;1.00;;;;;;5075938;28;20205;-73
2020/12/02 12:57:02;;;;;;;81.63;17.15;;;2.50;1.00;;;;;;5076198;28;20213;-73
2020/12/02 12:59:31;;;;;;;82.72;18.77;;;2.40;1.00;;;;;;5076200;28;20311;-72
2020/12/02 13:01:58;;;;;;;85.88;18.58;;;2.50;1.00;;;;;;5076383;28;20197;-72
2020/12/02 13:04:26;;;;;;;84.72;17.50;;;2.40;1.00;;;;;;5075935;28;20273;-73
2020/12/02 13:07:21;;;;;;;86.68;16.23;;;2.40;1.00;;;;;;5075745;28;20291;-72
2020/12/02 13:10:26;;;;;;;83.07;16.02;;;2.40;1.00;;;;;;5075822;28;20205;-73
2020/12/02 13:13:20;;;;;;;86.18;18.15;;;2.40;1.00;;;;;;5075435;28;20308;-73
2020/12/02 13:15:53;;;;;;;82.65;17.42;;;2.40;1.00;;;;;;5073684;28;20288;-72